Main page
METAR-TAF:

METAR-TAF

Airports :

Beaumont Municipal Airport

Beaumont, Texas, United States

latitude: 30-04-13N, longitude: 094-12-54W, elevation: 33 ft

Current weather observation

The report was made 11 minutes ago, at 13:15 UTC
Wind 10 mph from the East/Northeast with gusts up to 16 mph
Temperature 79°F
Humidity 84%
Pressure 30.06 in. Hg
Overcast at a height of 1400 ft

METAR: KBMT 201315Z AUTO 06009G14KT OVC014 26/23 A3006 RMK AO2 T02620231 PWINO

Time: 07:26 (13:26 UTC)


TAF: missing

Weather observations and forecasts of more than 4000 airports (METAR and TAF reports).

The available stations are represented by yellow and red dots on the map.

Hover mouse over dot to see the name of the station.

Then click to see weather observations and forecasts.

To change the map : click on the green buttons with a black cross to zoom in, on the green button with a dash to zoom out, or on the green arrows for adjacent maps.


METAR-TAF: